sensor_id;sensor_type;location;lat;lon;timestamp;P1;durP1;ratioP1;P2;durP2;ratioP2
29352;SDS011;16344;50.364;8.944;2022-12-11T00:01:29;56.40;;;25.30;;
29352;SDS011;16344;50.364;8.944;2022-12-11T00:03:55;60.22;;;24.63;;
29352;SDS011;16344;50.364;8.944;2022-12-11T00:06:21;62.35;;;26.17;;
29352;SDS011;16344;50.364;8.944;2022-12-11T00:08:50;60.78;;;26.42;;
29352;SDS011;16344;50.364;8.944;2022-12-11T00:11:17;58.35;;;27.25;;
29352;SDS011;16344;50.364;8.944;2022-12-11T00:13:43;63.35;;;27.38;;
29352;SDS011;16344;50.364;8.944;2022-12-11T00:16:09;56.53;;;27.08;;
29352;SDS011;16344;50.364;8.944;2022-12-11T00:18:35;61.83;;;25.85;;
29352;SDS011;16344;50.364;8.944;2022-12-11T00:21:02;59.40;;;26.27;;
29352;SDS011;16344;50.364;8.944;2022-12-11T00:23:28;52.78;;;26.63;;
29352;SDS011;16344;50.364;8.944;2022-12-11T00:25:54;58.20;;;24.65;;
29352;SDS011;16344;50.364;8.944;2022-12-11T00:28:19;51.58;;;23.55;;
29352;SDS011;16344;50.364;8.944;2022-12-11T00:30:45;62.30;;;27.15;;
29352;SDS011;16344;50.364;8.944;2022-12-11T00:33:12;65.38;;;30.52;;
29352;SDS011;16344;50.364;8.944;2022-12-11T00:35:39;63.85;;;26.80;;
29352;SDS011;16344;50.364;8.944;2022-12-11T00:38:05;60.22;;;27.70;;
29352;SDS011;16344;50.364;8.944;2022-12-11T00:40:34;64.25;;;28.63;;
29352;SDS011;16344;50.364;8.944;2022-12-11T00:43:00;58.03;;;26.88;;
29352;SDS011;16344;50.364;8.944;2022-12-11T00:45:26;63.50;;;27.90;;
29352;SDS011;16344;50.364;8.944;2022-12-11T00:47:52;59.15;;;26.67;;
29352;SDS011;16344;50.364;8.944;2022-12-11T00:50:17;59.28;;;27.00;;
29352;SDS011;16344;50.364;8.944;2022-12-11T00:52:43;56.08;;;24.50;;
29352;SDS011;16344;50.364;8.944;2022-12-11T00:55:08;59.15;;;26.75;;
29352;SDS011;16344;50.364;8.944;2022-12-11T00:57:34;64.95;;;26.65;;
29352;SDS011;16344;50.364;8.944;2022-12-11T01:00:00;59.22;;;26.20;;
29352;SDS011;16344;50.364;8.944;2022-12-11T01:02:26;62.90;;;26.27;;
29352;SDS011;16344;50.364;8.944;2022-12-11T01:04:51;61.63;;;25.95;;
29352;SDS011;16344;50.364;8.944;2022-12-11T01:07:17;57.38;;;25.10;;
29352;SDS011;16344;50.364;8.944;2022-12-11T01:09:42;56.42;;;26.35;;
29352;SDS011;16344;50.364;8.944;2022-12-11T01:12:26;62.92;;;27.80;;
29352;SDS011;16344;50.364;8.944;2022-12-11T01:14:52;65.07;;;28.25;;
29352;SDS011;16344;50.364;8.944;2022-12-11T01:17:18;60.83;;;26.80;;
29352;SDS011;16344;50.364;8.944;2022-12-11T01:19:43;56.88;;;26.13;;
29352;SDS011;16344;50.364;8.944;2022-12-11T01:22:09;57.50;;;25.80;;
29352;SDS011;16344;50.364;8.944;2022-12-11T01:24:35;59.58;;;26.50;;
29352;SDS011;16344;50.364;8.944;2022-12-11T01:27:02;68.40;;;28.08;;
29352;SDS011;16344;50.364;8.944;2022-12-11T01:29:28;71.85;;;29.45;;
29352;SDS011;16344;50.364;8.944;2022-12-11T01:31:53;64.30;;;26.30;;
29352;SDS011;16344;50.364;8.944;2022-12-11T01:34:19;57.22;;;27.42;;
29352;SDS011;16344;50.364;8.944;2022-12-11T01:36:44;59.58;;;27.05;;
29352;SDS011;16344;50.364;8.944;2022-12-11T01:39:10;57.75;;;26.95;;
29352;SDS011;16344;50.364;8.944;2022-12-11T01:41:36;65.43;;;26.90;;
29352;SDS011;16344;50.364;8.944;2022-12-11T01:44:03;56.85;;;26.13;;
29352;SDS011;16344;50.364;8.944;2022-12-11T01:46:32;60.30;;;25.33;;
29352;SDS011;16344;50.364;8.944;2022-12-11T01:48:59;57.88;;;27.45;;
29352;SDS011;16344;50.364;8.944;2022-12-11T01:51:26;63.63;;;28.95;;
29352;SDS011;16344;50.364;8.944;2022-12-11T01:53:58;61.88;;;26.77;;
29352;SDS011;16344;50.364;8.944;2022-12-11T01:56:28;59.47;;;25.77;;
29352;SDS011;16344;50.364;8.944;2022-12-11T01:58:56;61.17;;;28.35;;
29352;SDS011;16344;50.364;8.944;2022-12-11T02:01:40;60.15;;;28.40;;
29352;SDS011;16344;50.364;8.944;2022-12-11T02:04:09;62.92;;;27.83;;
29352;SDS011;16344;50.364;8.944;2022-12-11T02:06:40;60.63;;;27.92;;
29352;SDS011;16344;50.364;8.944;2022-12-11T02:09:09;58.30;;;26.52;;
29352;SDS011;16344;50.364;8.944;2022-12-11T02:11:41;56.65;;;27.02;;
29352;SDS011;16344;50.364;8.944;2022-12-11T02:14:28;60.22;;;26.15;;
29352;SDS011;16344;50.364;8.944;2022-12-11T02:22:41;61.85;;;28.25;;
29352;SDS011;16344;50.364;8.944;2022-12-11T02:25:30;58.33;;;27.23;;
29352;SDS011;16344;50.364;8.944;2022-12-11T02:28:07;61.85;;;28.60;;
29352;SDS011;16344;50.364;8.944;2022-12-11T02:31:09;61.72;;;27.02;;
29352;SDS011;16344;50.364;8.944;2022-12-11T02:33:43;63.08;;;27.90;;
29352;SDS011;16344;50.364;8.944;2022-12-11T02:36:13;63.75;;;27.90;;
29352;SDS011;16344;50.364;8.944;2022-12-11T02:38:42;59.00;;;26.08;;
29352;SDS011;16344;50.364;8.944;2022-12-11T02:41:14;62.78;;;26.92;;
29352;SDS011;16344;50.364;8.944;2022-12-11T02:43:41;60.33;;;27.58;;
29352;SDS011;16344;50.364;8.944;2022-12-11T02:46:08;66.25;;;27.70;;
29352;SDS011;16344;50.364;8.944;2022-12-11T02:48:35;60.10;;;27.17;;
29352;SDS011;16344;50.364;8.944;2022-12-11T02:51:01;60.67;;;26.15;;
29352;SDS011;16344;50.364;8.944;2022-12-11T02:53:30;58.42;;;26.33;;
29352;SDS011;16344;50.364;8.944;2022-12-11T02:56:08;64.35;;;29.63;;
29352;SDS011;16344;50.364;8.944;2022-12-11T02:58:38;66.45;;;29.08;;
29352;SDS011;16344;50.364;8.944;2022-12-11T03:01:11;63.40;;;28.67;;
29352;SDS011;16344;50.364;8.944;2022-12-11T03:03:37;69.35;;;30.25;;
29352;SDS011;16344;50.364;8.944;2022-12-11T03:06:02;64.13;;;28.98;;
29352;SDS011;16344;50.364;8.944;2022-12-11T03:08:28;64.10;;;29.05;;
29352;SDS011;16344;50.364;8.944;2022-12-11T03:10:54;71.55;;;30.52;;
29352;SDS011;16344;50.364;8.944;2022-12-11T03:13:20;66.10;;;30.88;;
29352;SDS011;16344;50.364;8.944;2022-12-11T03:18:50;67.25;;;30.02;;
29352;SDS011;16344;50.364;8.944;2022-12-11T03:21:27;70.80;;;30.35;;
29352;SDS011;16344;50.364;8.944;2022-12-11T03:24:02;62.40;;;28.35;;
29352;SDS011;16344;50.364;8.944;2022-12-11T03:26:41;77.18;;;32.15;;
29352;SDS011;16344;50.364;8.944;2022-12-11T03:29:13;78.50;;;30.87;;
29352;SDS011;16344;50.364;8.944;2022-12-11T03:32:07;59.00;;;28.80;;
29352;SDS011;16344;50.364;8.944;2022-12-11T03:34:40;68.70;;;31.27;;
29352;SDS011;16344;50.364;8.944;2022-12-11T03:37:09;71.50;;;30.77;;
29352;SDS011;16344;50.364;8.944;2022-12-11T03:39:38;67.30;;;31.48;;
29352;SDS011;16344;50.364;8.944;2022-12-11T03:42:09;66.18;;;28.92;;
29352;SDS011;16344;50.364;8.944;2022-12-11T03:44:37;66.65;;;29.92;;
29352;SDS011;16344;50.364;8.944;2022-12-11T03:47:05;60.85;;;29.35;;
29352;SDS011;16344;50.364;8.944;2022-12-11T03:49:33;64.47;;;29.42;;
29352;SDS011;16344;50.364;8.944;2022-12-11T03:52:03;76.10;;;31.75;;
29352;SDS011;16344;50.364;8.944;2022-12-11T03:54:31;62.58;;;28.08;;
29352;SDS011;16344;50.364;8.944;2022-12-11T03:56:58;68.57;;;29.40;;
29352;SDS011;16344;50.364;8.944;2022-12-11T03:59:27;58.55;;;27.55;;
29352;SDS011;16344;50.364;8.944;2022-12-11T04:01:52;70.15;;;30.30;;
29352;SDS011;16344;50.364;8.944;2022-12-11T04:04:18;77.80;;;32.65;;
29352;SDS011;16344;50.364;8.944;2022-12-11T04:06:43;72.20;;;31.98;;
29352;SDS011;16344;50.364;8.944;2022-12-11T04:09:09;76.70;;;33.60;;
29352;SDS011;16344;50.364;8.944;2022-12-11T04:11:34;76.57;;;33.63;;
29352;SDS011;16344;50.364;8.944;2022-12-11T04:14:01;68.22;;;29.25;;
29352;SDS011;16344;50.364;8.944;2022-12-11T04:16:46;58.90;;;28.23;;
29352;SDS011;16344;50.364;8.944;2022-12-11T04:19:12;83.53;;;32.70;;
29352;SDS011;16344;50.364;8.944;2022-12-11T04:21:56;73.85;;;30.88;;
29352;SDS011;16344;50.364;8.944;2022-12-11T04:24:40;64.68;;;27.17;;
29352;SDS011;16344;50.364;8.944;2022-12-11T04:27:06;69.32;;;29.08;;
29352;SDS011;16344;50.364;8.944;2022-12-11T04:29:31;64.25;;;29.63;;
29352;SDS011;16344;50.364;8.944;2022-12-11T04:31:57;69.30;;;28.63;;
29352;SDS011;16344;50.364;8.944;2022-12-11T04:34:22;63.35;;;28.65;;
29352;SDS011;16344;50.364;8.944;2022-12-11T04:36:48;77.30;;;31.88;;
29352;SDS011;16344;50.364;8.944;2022-12-11T04:39:14;68.38;;;29.13;;
29352;SDS011;16344;50.364;8.944;2022-12-11T04:41:39;68.43;;;30.73;;
29352;SDS011;16344;50.364;8.944;2022-12-11T04:44:05;71.88;;;31.17;;
29352;SDS011;16344;50.364;8.944;2022-12-11T04:46:31;69.32;;;29.42;;
29352;SDS011;16344;50.364;8.944;2022-12-11T04:48:57;66.00;;;29.17;;
29352;SDS011;16344;50.364;8.944;2022-12-11T04:51:24;65.85;;;29.42;;
29352;SDS011;16344;50.364;8.944;2022-12-11T04:53:51;63.70;;;28.17;;
29352;SDS011;16344;50.364;8.944;2022-12-11T04:56:16;67.25;;;29.38;;
29352;SDS011;16344;50.364;8.944;2022-12-11T04:58:42;63.88;;;30.35;;
29352;SDS011;16344;50.364;8.944;2022-12-11T05:03:35;68.85;;;31.27;;
29352;SDS011;16344;50.364;8.944;2022-12-11T05:06:01;65.97;;;29.00;;
29352;SDS011;16344;50.364;8.944;2022-12-11T05:08:26;71.40;;;30.02;;
29352;SDS011;16344;50.364;8.944;2022-12-11T05:10:56;66.72;;;28.98;;
29352;SDS011;16344;50.364;8.944;2022-12-11T05:13:27;71.60;;;31.70;;
29352;SDS011;16344;50.364;8.944;2022-12-11T05:15:53;67.50;;;29.48;;
29352;SDS011;16344;50.364;8.944;2022-12-11T05:18:19;70.28;;;31.10;;
29352;SDS011;16344;50.364;8.944;2022-12-11T05:20:53;69.78;;;29.92;;
29352;SDS011;16344;50.364;8.944;2022-12-11T05:23:20;72.03;;;31.13;;
29352;SDS011;16344;50.364;8.944;2022-12-11T05:25:56;65.72;;;30.35;;
29352;SDS011;16344;50.364;8.944;2022-12-11T05:28:24;73.55;;;32.10;;
29352;SDS011;16344;50.364;8.944;2022-12-11T05:30:58;64.88;;;30.58;;
29352;SDS011;16344;50.364;8.944;2022-12-11T05:33:28;73.68;;;31.40;;
29352;SDS011;16344;50.364;8.944;2022-12-11T05:35:54;66.22;;;31.50;;
29352;SDS011;16344;50.364;8.944;2022-12-11T05:38:20;69.85;;;34.22;;
29352;SDS011;16344;50.364;8.944;2022-12-11T05:43:26;70.40;;;31.20;;
29352;SDS011;16344;50.364;8.944;2022-12-11T05:45:53;74.10;;;32.35;;
29352;SDS011;16344;50.364;8.944;2022-12-11T05:48:19;72.93;;;30.73;;
29352;SDS011;16344;50.364;8.944;2022-12-11T05:50:54;74.55;;;31.73;;
29352;SDS011;16344;50.364;8.944;2022-12-11T05:53:21;67.90;;;30.88;;
29352;SDS011;16344;50.364;8.944;2022-12-11T05:55:47;74.55;;;31.58;;
29352;SDS011;16344;50.364;8.944;2022-12-11T05:58:12;74.03;;;30.85;;
29352;SDS011;16344;50.364;8.944;2022-12-11T06:00:40;75.80;;;31.60;;
29352;SDS011;16344;50.364;8.944;2022-12-11T06:03:05;77.88;;;32.20;;
29352;SDS011;16344;50.364;8.944;2022-12-11T06:05:31;76.35;;;32.00;;
29352;SDS011;16344;50.364;8.944;2022-12-11T06:08:01;75.93;;;32.78;;
29352;SDS011;16344;50.364;8.944;2022-12-11T06:10:27;67.22;;;29.80;;
29352;SDS011;16344;50.364;8.944;2022-12-11T06:12:52;71.30;;;32.58;;
29352;SDS011;16344;50.364;8.944;2022-12-11T06:15:18;73.18;;;31.98;;
29352;SDS011;16344;50.364;8.944;2022-12-11T06:17:43;73.85;;;31.17;;
29352;SDS011;16344;50.364;8.944;2022-12-11T06:20:09;69.90;;;31.27;;
29352;SDS011;16344;50.364;8.944;2022-12-11T06:22:34;69.20;;;29.70;;
29352;SDS011;16344;50.364;8.944;2022-12-11T06:25:00;68.13;;;29.88;;
29352;SDS011;16344;50.364;8.944;2022-12-11T06:27:25;70.47;;;31.23;;
29352;SDS011;16344;50.364;8.944;2022-12-11T06:29:51;72.38;;;30.88;;
29352;SDS011;16344;50.364;8.944;2022-12-11T06:32:16;72.97;;;31.63;;
29352;SDS011;16344;50.364;8.944;2022-12-11T06:34:42;68.18;;;30.05;;
29352;SDS011;16344;50.364;8.944;2022-12-11T06:37:07;76.20;;;32.78;;
29352;SDS011;16344;50.364;8.944;2022-12-11T06:39:33;67.72;;;30.17;;
29352;SDS011;16344;50.364;8.944;2022-12-11T06:41:59;73.32;;;32.28;;
29352;SDS011;16344;50.364;8.944;2022-12-11T06:44:24;65.88;;;28.73;;
29352;SDS011;16344;50.364;8.944;2022-12-11T06:46:50;75.18;;;30.83;;
29352;SDS011;16344;50.364;8.944;2022-12-11T06:49:15;65.82;;;31.40;;
29352;SDS011;16344;50.364;8.944;2022-12-11T06:51:41;74.40;;;32.45;;
29352;SDS011;16344;50.364;8.944;2022-12-11T06:54:06;70.40;;;30.60;;
29352;SDS011;16344;50.364;8.944;2022-12-11T06:56:33;74.32;;;32.05;;
29352;SDS011;16344;50.364;8.944;2022-12-11T06:58:59;69.20;;;30.77;;
29352;SDS011;16344;50.364;8.944;2022-12-11T07:01:25;76.75;;;31.77;;
29352;SDS011;16344;50.364;8.944;2022-12-11T07:03:55;75.85;;;32.60;;
29352;SDS011;16344;50.364;8.944;2022-12-11T07:06:22;76.43;;;32.10;;
29352;SDS011;16344;50.364;8.944;2022-12-11T07:08:48;78.97;;;32.72;;
29352;SDS011;16344;50.364;8.944;2022-12-11T07:11:15;76.20;;;32.85;;
29352;SDS011;16344;50.364;8.944;2022-12-11T07:13:42;73.55;;;33.13;;
29352;SDS011;16344;50.364;8.944;2022-12-11T07:16:08;88.65;;;39.40;;
29352;SDS011;16344;50.364;8.944;2022-12-11T07:18:36;101.30;;;43.65;;
29352;SDS011;16344;50.364;8.944;2022-12-11T07:21:03;93.65;;;39.38;;
29352;SDS011;16344;50.364;8.944;2022-12-11T07:23:29;85.80;;;38.38;;
29352;SDS011;16344;50.364;8.944;2022-12-11T07:25:55;83.22;;;34.72;;
29352;SDS011;16344;50.364;8.944;2022-12-11T07:28:20;77.28;;;32.58;;
29352;SDS011;16344;50.364;8.944;2022-12-11T07:30:46;72.22;;;31.98;;
29352;SDS011;16344;50.364;8.944;2022-12-11T07:33:12;71.43;;;31.98;;
29352;SDS011;16344;50.364;8.944;2022-12-11T07:35:37;77.70;;;30.75;;
29352;SDS011;16344;50.364;8.944;2022-12-11T07:38:03;73.60;;;32.22;;
29352;SDS011;16344;50.364;8.944;2022-12-11T07:40:28;70.97;;;30.65;;
29352;SDS011;16344;50.364;8.944;2022-12-11T07:42:54;64.18;;;30.10;;
29352;SDS011;16344;50.364;8.944;2022-12-11T07:45:19;68.38;;;32.00;;
29352;SDS011;16344;50.364;8.944;2022-12-11T07:47:45;73.85;;;31.92;;
29352;SDS011;16344;50.364;8.944;2022-12-11T07:50:11;69.65;;;30.33;;
29352;SDS011;16344;50.364;8.944;2022-12-11T07:52:36;69.80;;;29.63;;
29352;SDS011;16344;50.364;8.944;2022-12-11T07:55:02;66.22;;;29.02;;
29352;SDS011;16344;50.364;8.944;2022-12-11T07:57:28;63.90;;;29.05;;
29352;SDS011;16344;50.364;8.944;2022-12-11T07:59:53;66.72;;;28.85;;
29352;SDS011;16344;50.364;8.944;2022-12-11T08:02:19;75.60;;;34.35;;
29352;SDS011;16344;50.364;8.944;2022-12-11T08:04:45;67.65;;;31.52;;
29352;SDS011;16344;50.364;8.944;2022-12-11T08:07:11;70.90;;;34.33;;
29352;SDS011;16344;50.364;8.944;2022-12-11T08:09:37;69.13;;;31.10;;
29352;SDS011;16344;50.364;8.944;2022-12-11T08:12:02;76.70;;;32.42;;
29352;SDS011;16344;50.364;8.944;2022-12-11T08:14:29;72.15;;;31.52;;
29352;SDS011;16344;50.364;8.944;2022-12-11T08:16:54;64.75;;;29.40;;
29352;SDS011;16344;50.364;8.944;2022-12-11T08:19:21;66.72;;;28.67;;
29352;SDS011;16344;50.364;8.944;2022-12-11T08:21:46;63.72;;;29.75;;
29352;SDS011;16344;50.364;8.944;2022-12-11T08:24:12;64.90;;;31.02;;
29352;SDS011;16344;50.364;8.944;2022-12-11T08:26:40;66.03;;;30.30;;
29352;SDS011;16344;50.364;8.944;2022-12-11T08:29:06;73.28;;;30.90;;
29352;SDS011;16344;50.364;8.944;2022-12-11T08:31:31;73.63;;;31.75;;
29352;SDS011;16344;50.364;8.944;2022-12-11T08:33:57;70.13;;;31.15;;
29352;SDS011;16344;50.364;8.944;2022-12-11T08:36:23;67.80;;;31.70;;
29352;SDS011;16344;50.364;8.944;2022-12-11T08:38:49;78.13;;;32.47;;
29352;SDS011;16344;50.364;8.944;2022-12-11T08:41:20;75.70;;;32.95;;
29352;SDS011;16344;50.364;8.944;2022-12-11T08:43:48;76.00;;;32.30;;
29352;SDS011;16344;50.364;8.944;2022-12-11T08:46:16;78.00;;;33.28;;
29352;SDS011;16344;50.364;8.944;2022-12-11T08:48:42;67.80;;;31.20;;
29352;SDS011;16344;50.364;8.944;2022-12-11T08:51:10;68.25;;;32.58;;
29352;SDS011;16344;50.364;8.944;2022-12-11T08:53:37;69.57;;;32.00;;
29352;SDS011;16344;50.364;8.944;2022-12-11T08:56:04;76.75;;;32.28;;
29352;SDS011;16344;50.364;8.944;2022-12-11T08:58:31;72.93;;;32.85;;
29352;SDS011;16344;50.364;8.944;2022-12-11T09:00:57;74.85;;;31.75;;
29352;SDS011;16344;50.364;8.944;2022-12-11T09:03:23;73.50;;;32.63;;
29352;SDS011;16344;50.364;8.944;2022-12-11T09:05:48;70.80;;;32.45;;
29352;SDS011;16344;50.364;8.944;2022-12-11T09:08:14;68.82;;;32.00;;
29352;SDS011;16344;50.364;8.944;2022-12-11T09:10:40;63.55;;;29.98;;
29352;SDS011;16344;50.364;8.944;2022-12-11T09:13:06;69.68;;;30.08;;
29352;SDS011;16344;50.364;8.944;2022-12-11T09:15:31;71.47;;;32.28;;
29352;SDS011;16344;50.364;8.944;2022-12-11T09:17:57;73.85;;;32.22;;
29352;SDS011;16344;50.364;8.944;2022-12-11T09:20:22;66.90;;;30.70;;
29352;SDS011;16344;50.364;8.944;2022-12-11T09:22:48;65.75;;;30.38;;
29352;SDS011;16344;50.364;8.944;2022-12-11T09:25:13;74.40;;;34.25;;
29352;SDS011;16344;50.364;8.944;2022-12-11T09:27:39;82.47;;;36.17;;
29352;SDS011;16344;50.364;8.944;2022-12-11T09:30:05;81.15;;;36.83;;
29352;SDS011;16344;50.364;8.944;2022-12-11T09:32:31;85.05;;;37.55;;
29352;SDS011;16344;50.364;8.944;2022-12-11T09:34:56;87.88;;;36.92;;
29352;SDS011;16344;50.364;8.944;2022-12-11T09:37:22;74.72;;;34.25;;
29352;SDS011;16344;50.364;8.944;2022-12-11T09:39:47;72.13;;;31.92;;
29352;SDS011;16344;50.364;8.944;2022-12-11T09:42:14;72.82;;;32.33;;
29352;SDS011;16344;50.364;8.944;2022-12-11T09:44:53;69.50;;;31.58;;
29352;SDS011;16344;50.364;8.944;2022-12-11T09:47:40;77.00;;;32.85;;
29352;SDS011;16344;50.364;8.944;2022-12-11T09:52:38;68.63;;;28.90;;
29352;SDS011;16344;50.364;8.944;2022-12-11T09:55:15;66.32;;;31.10;;
29352;SDS011;16344;50.364;8.944;2022-12-11T09:57:51;66.15;;;31.10;;
29352;SDS011;16344;50.364;8.944;2022-12-11T10:00:39;64.93;;;30.58;;
29352;SDS011;16344;50.364;8.944;2022-12-11T10:05:57;70.55;;;31.52;;
29352;SDS011;16344;50.364;8.944;2022-12-11T10:08:53;67.97;;;30.92;;
29352;SDS011;16344;50.364;8.944;2022-12-11T10:17:35;68.70;;;30.50;;
29352;SDS011;16344;50.364;8.944;2022-12-11T10:20:24;65.53;;;31.15;;
29352;SDS011;16344;50.364;8.944;2022-12-11T10:22:57;63.28;;;31.60;;
29352;SDS011;16344;50.364;8.944;2022-12-11T10:25:24;60.92;;;26.88;;
29352;SDS011;16344;50.364;8.944;2022-12-11T10:27:56;52.80;;;24.52;;
29352;SDS011;16344;50.364;8.944;2022-12-11T10:30:29;47.55;;;21.50;;
29352;SDS011;16344;50.364;8.944;2022-12-11T10:35:44;45.92;;;20.98;;
29352;SDS011;16344;50.364;8.944;2022-12-11T10:38:32;46.60;;;22.50;;
29352;SDS011;16344;50.364;8.944;2022-12-11T10:41:04;47.15;;;21.83;;
29352;SDS011;16344;50.364;8.944;2022-12-11T10:43:46;36.63;;;17.67;;
29352;SDS011;16344;50.364;8.944;2022-12-11T10:46:15;40.67;;;19.02;;
29352;SDS011;16344;50.364;8.944;2022-12-11T10:48:50;45.53;;;19.55;;
29352;SDS011;16344;50.364;8.944;2022-12-11T10:51:20;44.10;;;20.20;;
29352;SDS011;16344;50.364;8.944;2022-12-11T10:53:56;39.83;;;18.88;;
29352;SDS011;16344;50.364;8.944;2022-12-11T10:56:30;25.95;;;13.00;;
29352;SDS011;16344;50.364;8.944;2022-12-11T10:58:57;33.17;;;15.85;;
29352;SDS011;16344;50.364;8.944;2022-12-11T11:01:26;29.98;;;13.82;;
29352;SDS011;16344;50.364;8.944;2022-12-11T11:06:30;23.63;;;13.23;;
29352;SDS011;16344;50.364;8.944;2022-12-11T11:08:57;34.50;;;14.35;;
29352;SDS011;16344;50.364;8.944;2022-12-11T11:14:03;26.15;;;12.80;;
29352;SDS011;16344;50.364;8.944;2022-12-11T11:16:31;29.60;;;12.07;;
29352;SDS011;16344;50.364;8.944;2022-12-11T11:19:03;31.77;;;14.38;;
29352;SDS011;16344;50.364;8.944;2022-12-11T11:21:30;27.60;;;13.43;;
29352;SDS011;16344;50.364;8.944;2022-12-11T11:23:58;41.55;;;17.15;;
29352;SDS011;16344;50.364;8.944;2022-12-11T11:26:24;34.72;;;16.55;;
29352;SDS011;16344;50.364;8.944;2022-12-11T11:28:56;33.40;;;14.00;;
29352;SDS011;16344;50.364;8.944;2022-12-11T11:31:34;25.48;;;12.82;;
29352;SDS011;16344;50.364;8.944;2022-12-11T11:34:01;30.08;;;14.55;;
29352;SDS011;16344;50.364;8.944;2022-12-11T11:36:32;37.67;;;16.63;;
29352;SDS011;16344;50.364;8.944;2022-12-11T11:39:14;30.75;;;14.98;;
29352;SDS011;16344;50.364;8.944;2022-12-11T11:44:41;22.02;;;10.15;;
29352;SDS011;16344;50.364;8.944;2022-12-11T11:47:15;19.67;;;10.48;;
29352;SDS011;16344;50.364;8.944;2022-12-11T11:49:52;21.48;;;10.38;;
29352;SDS011;16344;50.364;8.944;2022-12-11T11:52:40;19.40;;;9.43;;
29352;SDS011;16344;50.364;8.944;2022-12-11T11:55:20;29.48;;;12.80;;
29352;SDS011;16344;50.364;8.944;2022-12-11T12:00:40;30.45;;;14.05;;
29352;SDS011;16344;50.364;8.944;2022-12-11T12:03:16;35.90;;;16.48;;
29352;SDS011;16344;50.364;8.944;2022-12-11T12:22:43;26.73;;;12.75;;
29352;SDS011;16344;50.364;8.944;2022-12-11T12:25:36;33.13;;;16.45;;
29352;SDS011;16344;50.364;8.944;2022-12-11T12:28:21;34.00;;;15.95;;
29352;SDS011;16344;50.364;8.944;2022-12-11T12:31:19;36.45;;;18.45;;
29352;SDS011;16344;50.364;8.944;2022-12-11T12:34:14;37.22;;;18.08;;
29352;SDS011;16344;50.364;8.944;2022-12-11T12:36:45;32.70;;;15.05;;
29352;SDS011;16344;50.364;8.944;2022-12-11T12:44:57;34.70;;;13.73;;
29352;SDS011;16344;50.364;8.944;2022-12-11T12:47:39;33.15;;;13.93;;
29352;SDS011;16344;50.364;8.944;2022-12-11T12:50:09;32.42;;;13.43;;
29352;SDS011;16344;50.364;8.944;2022-12-11T12:52:45;18.55;;;8.88;;
29352;SDS011;16344;50.364;8.944;2022-12-11T13:00:30;28.02;;;12.68;;
29352;SDS011;16344;50.364;8.944;2022-12-11T13:03:11;30.58;;;14.90;;
29352;SDS011;16344;50.364;8.944;2022-12-11T13:05:45;27.80;;;13.43;;
29352;SDS011;16344;50.364;8.944;2022-12-11T13:08:26;34.20;;;15.07;;
29352;SDS011;16344;50.364;8.944;2022-12-11T13:10:59;36.90;;;16.67;;
29352;SDS011;16344;50.364;8.944;2022-12-11T13:13:37;31.65;;;16.80;;
29352;SDS011;16344;50.364;8.944;2022-12-11T13:16:25;52.25;;;20.67;;
29352;SDS011;16344;50.364;8.944;2022-12-11T13:18:58;45.10;;;19.38;;
29352;SDS011;16344;50.364;8.944;2022-12-11T13:21:34;40.15;;;18.50;;
29352;SDS011;16344;50.364;8.944;2022-12-11T13:27:09;41.13;;;18.15;;
29352;SDS011;16344;50.364;8.944;2022-12-11T13:29:46;43.13;;;19.98;;
29352;SDS011;16344;50.364;8.944;2022-12-11T13:34:52;44.50;;;21.30;;
29352;SDS011;16344;50.364;8.944;2022-12-11T13:42:51;58.45;;;28.00;;
29352;SDS011;16344;50.364;8.944;2022-12-11T13:45:24;68.65;;;25.85;;
29352;SDS011;16344;50.364;8.944;2022-12-11T13:47:53;57.38;;;26.33;;
29352;SDS011;16344;50.364;8.944;2022-12-11T13:50:24;56.03;;;25.85;;
29352;SDS011;16344;50.364;8.944;2022-12-11T13:53:00;51.70;;;23.75;;
29352;SDS011;16344;50.364;8.944;2022-12-11T13:55:28;54.13;;;21.23;;
29352;SDS011;16344;50.364;8.944;2022-12-11T13:57:55;59.30;;;22.33;;
29352;SDS011;16344;50.364;8.944;2022-12-11T14:00:23;50.47;;;22.45;;
29352;SDS011;16344;50.364;8.944;2022-12-11T14:02:50;48.85;;;22.85;;
29352;SDS011;16344;50.364;8.944;2022-12-11T14:05:18;51.55;;;22.70;;
29352;SDS011;16344;50.364;8.944;2022-12-11T14:07:48;54.75;;;23.30;;
29352;SDS011;16344;50.364;8.944;2022-12-11T14:10:17;47.93;;;21.73;;
29352;SDS011;16344;50.364;8.944;2022-12-11T14:15:23;49.22;;;23.50;;
29352;SDS011;16344;50.364;8.944;2022-12-11T14:17:50;50.00;;;22.85;;
29352;SDS011;16344;50.364;8.944;2022-12-11T14:20:20;47.70;;;21.98;;
29352;SDS011;16344;50.364;8.944;2022-12-11T14:22:48;46.55;;;21.92;;
29352;SDS011;16344;50.364;8.944;2022-12-11T14:25:18;51.03;;;21.67;;
29352;SDS011;16344;50.364;8.944;2022-12-11T14:27:47;56.92;;;24.42;;
29352;SDS011;16344;50.364;8.944;2022-12-11T14:30:24;62.78;;;26.10;;
29352;SDS011;16344;50.364;8.944;2022-12-11T14:32:53;50.25;;;22.60;;
29352;SDS011;16344;50.364;8.944;2022-12-11T14:37:57;42.85;;;19.92;;
29352;SDS011;16344;50.364;8.944;2022-12-11T14:40:27;46.28;;;21.40;;
29352;SDS011;16344;50.364;8.944;2022-12-11T14:42:58;41.90;;;19.55;;
29352;SDS011;16344;50.364;8.944;2022-12-11T14:45:32;50.65;;;22.15;;
29352;SDS011;16344;50.364;8.944;2022-12-11T14:48:01;48.20;;;21.88;;
29352;SDS011;16344;50.364;8.944;2022-12-11T14:50:37;42.30;;;19.77;;
29352;SDS011;16344;50.364;8.944;2022-12-11T14:53:16;42.28;;;17.95;;
29352;SDS011;16344;50.364;8.944;2022-12-11T14:55:47;51.88;;;21.42;;
29352;SDS011;16344;50.364;8.944;2022-12-11T14:58:14;52.65;;;23.45;;
29352;SDS011;16344;50.364;8.944;2022-12-11T15:00:59;46.08;;;21.58;;
29352;SDS011;16344;50.364;8.944;2022-12-11T15:03:33;52.67;;;22.60;;
29352;SDS011;16344;50.364;8.944;2022-12-11T15:06:01;50.97;;;22.67;;
29352;SDS011;16344;50.364;8.944;2022-12-11T15:08:44;51.58;;;22.48;;
29352;SDS011;16344;50.364;8.944;2022-12-11T15:11:11;47.03;;;21.42;;
29352;SDS011;16344;50.364;8.944;2022-12-11T15:13:51;44.47;;;20.67;;
29352;SDS011;16344;50.364;8.944;2022-12-11T15:16:18;53.70;;;23.27;;
29352;SDS011;16344;50.364;8.944;2022-12-11T15:18:49;46.72;;;20.67;;
29352;SDS011;16344;50.364;8.944;2022-12-11T15:21:16;56.65;;;24.98;;
29352;SDS011;16344;50.364;8.944;2022-12-11T15:23:56;73.00;;;27.50;;
29352;SDS011;16344;50.364;8.944;2022-12-11T15:26:34;69.90;;;31.38;;
29352;SDS011;16344;50.364;8.944;2022-12-11T15:29:06;54.03;;;23.70;;
29352;SDS011;16344;50.364;8.944;2022-12-11T15:40:04;53.53;;;24.52;;
29352;SDS011;16344;50.364;8.944;2022-12-11T15:42:31;56.92;;;25.70;;
29352;SDS011;16344;50.364;8.944;2022-12-11T15:44:58;61.70;;;27.27;;
29352;SDS011;16344;50.364;8.944;2022-12-11T15:47:25;64.88;;;27.15;;
29352;SDS011;16344;50.364;8.944;2022-12-11T15:49:53;55.80;;;26.92;;
29352;SDS011;16344;50.364;8.944;2022-12-11T15:52:21;65.65;;;28.70;;
29352;SDS011;16344;50.364;8.944;2022-12-11T15:54:47;67.38;;;29.60;;
29352;SDS011;16344;50.364;8.944;2022-12-11T15:57:13;69.35;;;31.00;;
29352;SDS011;16344;50.364;8.944;2022-12-11T15:59:43;71.75;;;30.90;;
29352;SDS011;16344;50.364;8.944;2022-12-11T16:02:10;76.72;;;34.00;;
29352;SDS011;16344;50.364;8.944;2022-12-11T16:04:36;90.45;;;38.63;;
29352;SDS011;16344;50.364;8.944;2022-12-11T16:07:02;88.50;;;38.67;;